This is the latest recevied weather packets stored in our database for station/object K4SPB-4. If no packets are shown the sender has not sent any weather packets the latest 10 day(s).
| Time | Temp. | Humidity | Pressure | Rain* | Wind** | Luminosity | Snow |
|---|---|---|---|---|---|---|---|
| 1778286641 | 21.67° C | 52% | 1009.6 hPa | 0 mm | - | - | - |
| 1778283631 | 22.78° C | 47% | 1009.5 hPa | 0 mm | - | - | - |
| 1778283028 | 22.78° C | 45% | 1009.6 hPa | 0 mm | - | - | - |
| 1778278851 | 23.33° C | 42% | 1010 hPa | 0 mm | - | - | - |
| 1778272228 | 23.33° C | 39% | 1010.7 hPa | 0 mm | - | - | - |
| 1778269217 | 22.78° C | 41% | 1011.2 hPa | 0 mm | - | - | - |
| 1778263823 | 22.22° C | 43% | 1013.2 hPa | 0 mm | - | - | - |
| 1778261434 | 21.67° C | 40% | 1013.6 hPa | 0 mm | - | - | - |
| 1778258428 | 21.11° C | 43% | 1014.6 hPa | 0 mm | - | - | - |
| 1778256632 | 20° C | 46% | 1015.1 hPa | 0 mm | - | - | - |
| 1778251833 | 17.78° C | 60% | 1015.8 hPa | 0 mm | - | - | - |
| 1778251232 | 17.78° C | 66% | 1016 hPa | 0 mm | - | - | - |
| 1778248820 | 15.56° C | 69% | 1016.1 hPa | 0 mm | - | - | - |
| 1778247637 | 14.44° C | 71% | 1015.9 hPa | 0 mm | - | - | - |
| 1778244024 | 11.67° C | 84% | 1016.3 hPa | 0 mm | - | - | - |
| 1778237419 | 8.33° C | 94% | 1015.3 hPa | 0 mm | - | - | - |
| 1778235632 | 8.89° C | 93% | 1015.5 hPa | 0 mm | - | - | - |
| 1778235030 | 8.89° C | 93% | 1015.4 hPa | 0 mm | - | - | - |
| 1778228427 | 10° C | 91% | 1014.9 hPa | 0 mm | - | - | - |
| 1778227825 | 10° C | 91% | 1015 hPa | 0 mm | - | - | - |
| 1778225417 | 10.56° C | 90% | 1015.2 hPa | 0 mm | - | - | - |
| 1778224252 | 10.56° C | 90% | 1015.3 hPa | 0 mm | - | - | - |
| 1778221222 | 11.11° C | 89% | 1015.8 hPa | 0 mm | - | - | - |
| 1778217047 | 12.22° C | 85% | 1015.6 hPa | 0 mm | - | - | - |
| 1778215216 | 12.22° C | 84% | 1015.7 hPa | 0 mm | - | - | - |
* Rain latest hour (hover to see other rain measurements)
** Current wind speed in m/s (hover to see current wind gust speed)